AVA9451 SKSM-SKRG
Flight info
| Callsign | AVA9451 |
|---|---|
| Flight time | 0h 56m |
| Altitude | 31000 |
| Route | MGN3C MGN UW3 SERVO DCT BIVIG BIVIG3C |
| Aircraft | A320/M-SDE3FGHIRWY/LB1 |
Departure
| Time | 2026-05-07 17:03 |
|---|---|
| Airport | Simón Bolívar International Airport (SKSM) |
Arrival
| Time | 2026-05-07 17:59 |
|---|---|
| Airport | Jose Maria Córdova International Airport (SKRG) |
| Time | Latitude | Longitude | Altitude | Speed | Heading |
|---|---|---|---|---|---|
| 2026-05-07 16:37 | 11.11815 | -74.23220 | 27 ft | 0 kts | 269° |
| 2026-05-07 16:54 | 11.11815 | -74.23219 | 26 ft | 0 kts | 269° |
| 2026-05-07 16:56 | 11.11815 | -74.23218 | 26 ft | 2 kts | 269° |
| 2026-05-07 16:57 | 11.11818 | -74.23193 | 26 ft | 4 kts | 246° |
| 2026-05-07 16:57 | 11.11833 | -74.23172 | 27 ft | 4 kts | 209° |
| 2026-05-07 16:57 | 11.11857 | -74.23165 | 27 ft | 2 kts | 180° |
| 2026-05-07 16:57 | 11.11859 | -74.23165 | 27 ft | 0 kts | 179° |
| 2026-05-07 16:59 | 11.11834 | -74.23165 | 27 ft | 8 kts | 180° |
| 2026-05-07 16:59 | 11.11783 | -74.23163 | 27 ft | 7 kts | 178° |
| 2026-05-07 16:59 | 11.11749 | -74.23150 | 26 ft | 5 kts | 112° |
| 2026-05-07 17:00 | 11.11746 | -74.23090 | 27 ft | 13 kts | 88° |
| 2026-05-07 17:00 | 11.11702 | -74.23058 | 26 ft | 11 kts | 179° |
| 2026-05-07 17:00 | 11.11579 | -74.23054 | 26 ft | 22 kts | 179° |
| 2026-05-07 17:00 | 11.11423 | -74.23051 | 27 ft | 23 kts | 179° |
| 2026-05-07 17:01 | 11.11286 | -74.23045 | 27 ft | 13 kts | 160° |
| 2026-05-07 17:01 | 11.11217 | -74.23029 | 27 ft | 7 kts | 239° |
| 2026-05-07 17:01 | 11.11240 | -74.23047 | 27 ft | 4 kts | 354° |
| 2026-05-07 17:01 | 11.11254 | -74.23047 | 27 ft | 0 kts | 358° |
| 2026-05-07 17:02 | 11.11406 | -74.23052 | 28 ft | 59 kts | 359° |
| 2026-05-07 17:02 | 11.12078 | -74.23065 | 29 ft | 130 kts | 359° |
| 2026-05-07 17:02 | 11.13114 | -74.23096 | 418 ft | 151 kts | 356° |
| 2026-05-07 17:03 | 11.14163 | -74.23124 | 1192 ft | 150 kts | 356° |
| 2026-05-07 17:03 | 11.15157 | -74.23443 | 1613 ft | 161 kts | 313° |
| 2026-05-07 17:03 | 11.15539 | -74.24538 | 1869 ft | 180 kts | 261° |
| 2026-05-07 17:03 | 11.14998 | -74.25760 | 2075 ft | 202 kts | 240° |
| 2026-05-07 17:04 | 11.14401 | -74.27152 | 2285 ft | 228 kts | 251° |
| 2026-05-07 17:04 | 11.13916 | -74.28774 | 2622 ft | 252 kts | 253° |
| 2026-05-07 17:04 | 11.13366 | -74.30529 | 3196 ft | 265 kts | 250° |
| 2026-05-07 17:04 | 11.12659 | -74.32283 | 3966 ft | 271 kts | 244° |
| 2026-05-07 17:05 | 11.11754 | -74.33983 | 4775 ft | 275 kts | 238° |
| 2026-05-07 17:05 | 11.10649 | -74.35589 | 5555 ft | 279 kts | 232° |
| 2026-05-07 17:05 | 11.09347 | -74.37091 | 6255 ft | 287 kts | 225° |
| 2026-05-07 17:05 | 11.07858 | -74.38466 | 6960 ft | 291 kts | 219° |
| 2026-05-07 17:06 | 11.06216 | -74.39687 | 7735 ft | 293 kts | 212° |
| 2026-05-07 17:06 | 11.04440 | -74.40730 | 8506 ft | 295 kts | 205° |
| 2026-05-07 17:06 | 11.02555 | -74.41559 | 9299 ft | 296 kts | 198° |
| 2026-05-07 17:06 | 11.00580 | -74.42168 | 10074 ft | 298 kts | 193° |
| 2026-05-07 17:07 | 10.98482 | -74.42564 | 10334 ft | 318 kts | 185° |
| 2026-05-07 17:07 | 10.96197 | -74.42697 | 10587 ft | 336 kts | 178° |
| 2026-05-07 17:07 | 10.93834 | -74.42704 | 11121 ft | 343 kts | 182° |
| 2026-05-07 17:07 | 10.91448 | -74.43007 | 11742 ft | 349 kts | 189° |
| 2026-05-07 17:08 | 10.89074 | -74.43587 | 12378 ft | 353 kts | 191° |
| 2026-05-07 17:08 | 10.86682 | -74.44209 | 12996 ft | 357 kts | 191° |
| 2026-05-07 17:08 | 10.84258 | -74.44834 | 13602 ft | 361 kts | 191° |
| 2026-05-07 17:08 | 10.82638 | -74.45251 | 13962 ft | 364 kts | 191° |
| 2026-05-07 17:09 | 10.81401 | -74.45577 | 14218 ft | 366 kts | 192° |
| 2026-05-07 17:09 | 10.78930 | -74.46251 | 14747 ft | 369 kts | 191° |
| 2026-05-07 17:10 | 10.76427 | -74.46899 | 15276 ft | 373 kts | 191° |
| 2026-05-07 17:10 | 10.73895 | -74.47537 | 15799 ft | 377 kts | 191° |
| 2026-05-07 17:10 | 10.71331 | -74.48181 | 16322 ft | 381 kts | 191° |
| 2026-05-07 17:10 | 10.68743 | -74.48832 | 16831 ft | 385 kts | 191° |
| 2026-05-07 17:11 | 10.66136 | -74.49494 | 17352 ft | 389 kts | 192° |
| 2026-05-07 17:11 | 10.63499 | -74.50170 | 17865 ft | 393 kts | 192° |
| 2026-05-07 17:11 | 10.60841 | -74.50856 | 18340 ft | 396 kts | 192° |
| 2026-05-07 17:11 | 10.58153 | -74.51550 | 18765 ft | 400 kts | 192° |
| 2026-05-07 17:12 | 10.55446 | -74.52245 | 19189 ft | 403 kts | 192° |
| 2026-05-07 17:12 | 10.52713 | -74.52946 | 19624 ft | 407 kts | 192° |
| 2026-05-07 17:12 | 10.49959 | -74.53655 | 20044 ft | 410 kts | 192° |
| 2026-05-07 17:12 | 10.47180 | -74.54372 | 20465 ft | 414 kts | 192° |
| 2026-05-07 17:13 | 10.44374 | -74.55093 | 20875 ft | 417 kts | 192° |
| 2026-05-07 17:13 | 10.41547 | -74.55819 | 21285 ft | 420 kts | 192° |
| 2026-05-07 17:13 | 10.38699 | -74.56551 | 21681 ft | 424 kts | 192° |
| 2026-05-07 17:13 | 10.35831 | -74.57288 | 22068 ft | 427 kts | 192° |
| 2026-05-07 17:14 | 10.32943 | -74.58028 | 22458 ft | 430 kts | 192° |
| 2026-05-07 17:14 | 10.30029 | -74.58774 | 22841 ft | 433 kts | 192° |
| 2026-05-07 17:14 | 10.27093 | -74.59525 | 23220 ft | 437 kts | 192° |
| 2026-05-07 17:14 | 10.24140 | -74.60283 | 23567 ft | 440 kts | 192° |
| 2026-05-07 17:15 | 10.21162 | -74.61051 | 23887 ft | 442 kts | 192° |
| 2026-05-07 17:15 | 10.18176 | -74.61821 | 24231 ft | 444 kts | 192° |
| 2026-05-07 17:15 | 10.15176 | -74.62592 | 24573 ft | 446 kts | 192° |
| 2026-05-07 17:15 | 10.12164 | -74.63365 | 24915 ft | 447 kts | 192° |
| 2026-05-07 17:16 | 10.09141 | -74.64140 | 25249 ft | 449 kts | 192° |
| 2026-05-07 17:16 | 10.06105 | -74.64916 | 25582 ft | 451 kts | 192° |
| 2026-05-07 17:16 | 10.03052 | -74.65695 | 25912 ft | 453 kts | 192° |
| 2026-05-07 17:16 | 9.99994 | -74.66474 | 26239 ft | 454 kts | 192° |
| 2026-05-07 17:17 | 9.96923 | -74.67255 | 26558 ft | 456 kts | 192° |
| 2026-05-07 17:17 | 9.93877 | -74.68036 | 26863 ft | 458 kts | 192° |
| 2026-05-07 17:17 | 9.90779 | -74.68832 | 27166 ft | 460 kts | 192° |
| 2026-05-07 17:17 | 9.87631 | -74.69642 | 27472 ft | 462 kts | 193° |
| 2026-05-07 17:18 | 9.84511 | -74.70447 | 27771 ft | 463 kts | 192° |
| 2026-05-07 17:18 | 9.81424 | -74.71239 | 28104 ft | 464 kts | 192° |
| 2026-05-07 17:18 | 9.78293 | -74.72039 | 28428 ft | 465 kts | 192° |
| 2026-05-07 17:18 | 9.75144 | -74.72844 | 28726 ft | 467 kts | 192° |
| 2026-05-07 17:19 | 9.71988 | -74.73650 | 29023 ft | 469 kts | 192° |
| 2026-05-07 17:19 | 9.68823 | -74.74459 | 29312 ft | 470 kts | 192° |
| 2026-05-07 17:19 | 9.65648 | -74.75267 | 29594 ft | 472 kts | 192° |
| 2026-05-07 17:19 | 9.62454 | -74.76079 | 29869 ft | 474 kts | 192° |
| 2026-05-07 17:20 | 9.59253 | -74.76891 | 30108 ft | 475 kts | 192° |
| 2026-05-07 17:20 | 9.56044 | -74.77708 | 30332 ft | 477 kts | 193° |
| 2026-05-07 17:20 | 9.52824 | -74.78532 | 30564 ft | 478 kts | 193° |
| 2026-05-07 17:20 | 9.49596 | -74.79360 | 30786 ft | 479 kts | 193° |
| 2026-05-07 17:21 | 9.43215 | -74.80998 | 30909 ft | 459 kts | 194° |
| 2026-05-07 17:21 | 9.37119 | -74.82556 | 30906 ft | 448 kts | 193° |
| 2026-05-07 17:22 | 9.31085 | -74.84088 | 30910 ft | 447 kts | 193° |
| 2026-05-07 17:22 | 9.24989 | -74.85279 | 30910 ft | 446 kts | 188° |
| 2026-05-07 17:23 | 9.18845 | -74.86231 | 30908 ft | 446 kts | 188° |
| 2026-05-07 17:23 | 9.12745 | -74.87173 | 30910 ft | 446 kts | 189° |
| 2026-05-07 17:24 | 9.06616 | -74.88122 | 30910 ft | 445 kts | 189° |
| 2026-05-07 17:24 | 9.00505 | -74.89068 | 30910 ft | 444 kts | 189° |
| 2026-05-07 17:25 | 8.94394 | -74.90016 | 30896 ft | 444 kts | 189° |
| 2026-05-07 17:25 | 8.88298 | -74.90956 | 30894 ft | 443 kts | 189° |
| 2026-05-07 17:26 | 8.82198 | -74.91900 | 30892 ft | 443 kts | 189° |
| 2026-05-07 17:26 | 8.76108 | -74.92843 | 30898 ft | 443 kts | 189° |
| 2026-05-07 17:27 | 8.70027 | -74.93785 | 30897 ft | 442 kts | 189° |
| 2026-05-07 17:27 | 8.63991 | -74.94715 | 30895 ft | 442 kts | 189° |
| 2026-05-07 17:28 | 8.57917 | -74.95655 | 30898 ft | 441 kts | 189° |
| 2026-05-07 17:28 | 8.51851 | -74.96594 | 30893 ft | 441 kts | 189° |
| 2026-05-07 17:29 | 8.45781 | -74.97526 | 30891 ft | 441 kts | 189° |
| 2026-05-07 17:29 | 8.39708 | -74.98459 | 30891 ft | 441 kts | 189° |
| 2026-05-07 17:30 | 8.33652 | -74.99400 | 30903 ft | 440 kts | 189° |
| 2026-05-07 17:30 | 8.27879 | -75.00297 | 30896 ft | 440 kts | 189° |
| 2026-05-07 17:31 | 8.21832 | -75.01234 | 30902 ft | 439 kts | 189° |
| 2026-05-07 17:31 | 8.15783 | -75.02164 | 30896 ft | 439 kts | 189° |
| 2026-05-07 17:32 | 8.09737 | -75.03091 | 30900 ft | 439 kts | 189° |
| 2026-05-07 17:32 | 8.04715 | -75.03858 | 30901 ft | 439 kts | 189° |
| 2026-05-07 17:33 | 7.97660 | -75.04944 | 30906 ft | 438 kts | 189° |
| 2026-05-07 17:33 | 7.91676 | -75.05870 | 30910 ft | 438 kts | 190° |
| 2026-05-07 17:34 | 7.85658 | -75.06807 | 30906 ft | 437 kts | 189° |
| 2026-05-07 17:34 | 7.79645 | -75.07734 | 30907 ft | 437 kts | 189° |
| 2026-05-07 17:35 | 7.73631 | -75.08653 | 30902 ft | 437 kts | 189° |
| 2026-05-07 17:35 | 7.67618 | -75.09571 | 30904 ft | 437 kts | 189° |
| 2026-05-07 17:36 | 7.61611 | -75.10482 | 30922 ft | 436 kts | 189° |
| 2026-05-07 17:36 | 7.55615 | -75.11386 | 30923 ft | 436 kts | 190° |
| 2026-05-07 17:37 | 7.49618 | -75.12290 | 30920 ft | 436 kts | 190° |
| 2026-05-07 17:37 | 7.43618 | -75.13200 | 30931 ft | 435 kts | 189° |
| 2026-05-07 17:38 | 7.37636 | -75.14115 | 30932 ft | 435 kts | 190° |
| 2026-05-07 17:38 | 7.31651 | -75.15028 | 30947 ft | 435 kts | 190° |
| 2026-05-07 17:39 | 7.25665 | -75.15926 | 30947 ft | 434 kts | 190° |
| 2026-05-07 17:39 | 7.19689 | -75.16824 | 30949 ft | 434 kts | 189° |
| 2026-05-07 17:40 | 7.13722 | -75.17737 | 30949 ft | 434 kts | 189° |
| 2026-05-07 17:40 | 7.07755 | -75.18650 | 30941 ft | 434 kts | 190° |
| 2026-05-07 17:41 | 7.01769 | -75.19430 | 30964 ft | 434 kts | 182° |
| 2026-05-07 17:41 | 6.95771 | -75.19182 | 30906 ft | 434 kts | 179° |
| 2026-05-07 17:42 | 6.92784 | -75.19028 | 30672 ft | 426 kts | 179° |
| 2026-05-07 17:42 | 6.89838 | -75.18876 | 30455 ft | 422 kts | 178° |
| 2026-05-07 17:42 | 6.86908 | -75.18727 | 30229 ft | 420 kts | 178° |
| 2026-05-07 17:42 | 6.83996 | -75.18580 | 29993 ft | 418 kts | 178° |
| 2026-05-07 17:43 | 6.81101 | -75.18435 | 29683 ft | 414 kts | 178° |
| 2026-05-07 17:43 | 6.78236 | -75.18293 | 29195 ft | 410 kts | 177° |
| 2026-05-07 17:43 | 6.75399 | -75.18151 | 28738 ft | 406 kts | 177° |
| 2026-05-07 17:43 | 6.72588 | -75.18009 | 28274 ft | 403 kts | 177° |
| 2026-05-07 17:44 | 6.69801 | -75.17870 | 27821 ft | 400 kts | 176° |
| 2026-05-07 17:44 | 6.67968 | -75.17780 | 27525 ft | 397 kts | 176° |
| 2026-05-07 17:44 | 6.64287 | -75.17595 | 26927 ft | 394 kts | 175° |
| 2026-05-07 17:44 | 6.62481 | -75.17504 | 26636 ft | 392 kts | 176° |
| 2026-05-07 17:45 | 6.59767 | -75.17369 | 26190 ft | 390 kts | 175° |
| 2026-05-07 17:45 | 6.57068 | -75.17237 | 25745 ft | 388 kts | 175° |
| 2026-05-07 17:45 | 6.54376 | -75.17107 | 25292 ft | 386 kts | 176° |
| 2026-05-07 17:45 | 6.51701 | -75.16974 | 24824 ft | 385 kts | 175° |
| 2026-05-07 17:46 | 6.49025 | -75.16837 | 24358 ft | 384 kts | 175° |
| 2026-05-07 17:46 | 6.46362 | -75.16700 | 23874 ft | 384 kts | 175° |
| 2026-05-07 17:46 | 6.43696 | -75.16565 | 23351 ft | 384 kts | 175° |
| 2026-05-07 17:46 | 6.41030 | -75.16461 | 22858 ft | 382 kts | 179° |
| 2026-05-07 17:47 | 6.38392 | -75.16750 | 22389 ft | 382 kts | 191° |
| 2026-05-07 17:47 | 6.35821 | -75.17427 | 21910 ft | 381 kts | 193° |
| 2026-05-07 17:47 | 6.33261 | -75.18124 | 21443 ft | 380 kts | 193° |
| 2026-05-07 17:47 | 6.30714 | -75.18817 | 21095 ft | 379 kts | 193° |
| 2026-05-07 17:48 | 6.28175 | -75.19508 | 20647 ft | 377 kts | 193° |
| 2026-05-07 17:48 | 6.25645 | -75.20197 | 20214 ft | 377 kts | 193° |
| 2026-05-07 17:48 | 6.23112 | -75.20887 | 19755 ft | 376 kts | 193° |
| 2026-05-07 17:48 | 6.20592 | -75.21572 | 19321 ft | 376 kts | 192° |
| 2026-05-07 17:49 | 6.18073 | -75.22256 | 18866 ft | 375 kts | 193° |
| 2026-05-07 17:49 | 6.15553 | -75.22942 | 18357 ft | 375 kts | 193° |
| 2026-05-07 17:49 | 6.13029 | -75.23629 | 17870 ft | 372 kts | 193° |
| 2026-05-07 17:49 | 6.10561 | -75.24302 | 17129 ft | 366 kts | 193° |
| 2026-05-07 17:50 | 6.08140 | -75.24964 | 16623 ft | 354 kts | 193° |
| 2026-05-07 17:50 | 6.05833 | -75.25594 | 16198 ft | 342 kts | 193° |
| 2026-05-07 17:50 | 6.03562 | -75.26211 | 15776 ft | 338 kts | 193° |
| 2026-05-07 17:50 | 6.01279 | -75.26826 | 15344 ft | 339 kts | 192° |
| 2026-05-07 17:51 | 5.98992 | -75.27443 | 14914 ft | 341 kts | 192° |
| 2026-05-07 17:51 | 5.96696 | -75.28065 | 14466 ft | 343 kts | 192° |
| 2026-05-07 17:51 | 5.94393 | -75.28694 | 14140 ft | 340 kts | 193° |
| 2026-05-07 17:51 | 5.92156 | -75.29310 | 14005 ft | 328 kts | 192° |
| 2026-05-07 17:52 | 5.90016 | -75.30037 | 13857 ft | 323 kts | 207° |
| 2026-05-07 17:52 | 5.88369 | -75.31521 | 13718 ft | 318 kts | 236° |
| 2026-05-07 17:52 | 5.87636 | -75.33535 | 13581 ft | 301 kts | 265° |
| 2026-05-07 17:52 | 5.87574 | -75.35592 | 13273 ft | 291 kts | 270° |
| 2026-05-07 17:53 | 5.87560 | -75.37609 | 12808 ft | 288 kts | 270° |
| 2026-05-07 17:53 | 5.87605 | -75.39630 | 12103 ft | 293 kts | 279° |
| 2026-05-07 17:53 | 5.88438 | -75.41450 | 11676 ft | 285 kts | 316° |
| 2026-05-07 17:53 | 5.90053 | -75.42449 | 11413 ft | 269 kts | 349° |
| 2026-05-07 17:54 | 5.91860 | -75.42681 | 11123 ft | 257 kts | 2° |
| 2026-05-07 17:54 | 5.93626 | -75.42638 | 10831 ft | 251 kts | 7° |
| 2026-05-07 17:54 | 5.95353 | -75.42526 | 10548 ft | 248 kts | 8° |
| 2026-05-07 17:54 | 5.97056 | -75.42426 | 10274 ft | 241 kts | 6° |
| 2026-05-07 17:55 | 5.98692 | -75.42359 | 9982 ft | 230 kts | 5° |
| 2026-05-07 17:55 | 6.00215 | -75.42272 | 9787 ft | 210 kts | 7° |
| 2026-05-07 17:55 | 6.01606 | -75.42232 | 9548 ft | 190 kts | 4° |
| 2026-05-07 17:55 | 6.02909 | -75.42228 | 9337 ft | 183 kts | 1° |
| 2026-05-07 17:56 | 6.04171 | -75.42233 | 9076 ft | 180 kts | 5° |
| 2026-05-07 17:56 | 6.05403 | -75.42242 | 8875 ft | 178 kts | 2° |
| 2026-05-07 17:56 | 6.06629 | -75.42250 | 8676 ft | 175 kts | 2° |
| 2026-05-07 17:56 | 6.07830 | -75.42258 | 8450 ft | 171 kts | 1° |
| 2026-05-07 17:57 | 6.09011 | -75.42265 | 8252 ft | 169 kts | 1° |
| 2026-05-07 17:57 | 6.09791 | -75.42269 | 8096 ft | 169 kts | 3° |
| 2026-05-07 17:57 | 6.11368 | -75.42280 | 7794 ft | 172 kts | 2° |
| 2026-05-07 17:57 | 6.12547 | -75.42284 | 7499 ft | 169 kts | 3° |
| 2026-05-07 17:58 | 6.13723 | -75.42294 | 7296 ft | 168 kts | 2° |
| 2026-05-07 17:58 | 6.14892 | -75.42303 | 7040 ft | 167 kts | 2° |
| 2026-05-07 17:58 | 6.15981 | -75.42309 | 6981 ft | 135 kts | 359° |
| 2026-05-07 17:58 | 6.16745 | -75.42314 | 7014 ft | 85 kts | 359° |
| 2026-05-07 17:59 | 6.17169 | -75.42317 | 7020 ft | 43 kts | 359° |
| 2026-05-07 17:59 | 6.17460 | -75.42319 | 7023 ft | 38 kts | 0° |
| 2026-05-07 17:59 | 6.17570 | -75.42370 | 7021 ft | 9 kts | 252° |
| 2026-05-07 17:59 | 6.17573 | -75.42432 | 7022 ft | 8 kts | 274° |
| 2026-05-07 18:00 | 6.17559 | -75.42481 | 7019 ft | 9 kts | 227° |
| 2026-05-07 18:00 | 6.17462 | -75.42488 | 7021 ft | 20 kts | 180° |
| 2026-05-07 18:00 | 6.17314 | -75.42488 | 7017 ft | 22 kts | 180° |
| 2026-05-07 18:00 | 6.17193 | -75.42500 | 7019 ft | 12 kts | 233° |
| 2026-05-07 18:01 | 6.17190 | -75.42583 | 7017 ft | 12 kts | 264° |
| 2026-05-07 18:01 | 6.17127 | -75.42616 | 7017 ft | 10 kts | 180° |
| 2026-05-07 18:01 | 6.17068 | -75.42630 | 7017 ft | 8 kts | 215° |
| 2026-05-07 18:01 | 6.17060 | -75.42668 | 7016 ft | 5 kts | 288° |
| 2026-05-07 18:02 | 6.17070 | -75.42694 | 7018 ft | 0 kts | 292° |